CLU weather

Columbus Municipal Airport
Columbus, Indiana, United States

Public forecast

Using degrees Fahrenheit for public forecast. Weather courtesy of forecast.io.

Current aviation weather report (METAR) for Columbus Municipal Airport

Retrieved 2020/05/29 00:45 UTC (19 minutes ago):

KBAK 290045Z 19007KT 10SM FEW020 SCT055 24/17 A2990

Closest aviation forecast (TAF) to Columbus Municipal Airport

Closest forecast is Indianapolis International Airport, 33.0 nm (61.1 km) NW. Retrieved 2020-05-29 00:30 UTC (34 minutes ago):

TAF KIND 282326Z 2900/3006 20008KT P6SM VCTS SCT040CB BKN100 FM290200 20008KT P6SM VCSH SCT040 BKN100 FM291100 23006KT P6SM VCSH BKN006 FM291300 23008KT 6SM -SHRA VCTS BKN007 OVC012CB FM291800 32010G20KT P6SM OVC035 FM300400 34005KT P6SM FEW120